Time;durP1;ratioP1;P1;durP2;ratioP2;P2;SDS_P1;SDS_P2;PMS_P1;PMS_P2;Temp;Humidity;BMP_temperature;BMP_pressure;BME280_temperature;BME280_humidity;BME280_pressure;Samples;Min_cycle;Max_cycle;Signal;HPM_P1;HPM_P2
2024/01/20 00:00:17;;;;;;;;;86.00;84.33;;;;;20.76;39.75;102728.13;6366548;22;55079;-78
2024/01/20 00:02:43;;;;;;;;;85.33;81.00;;;;;20.72;40.16;102727.53;6367529;22;46953;-78
2024/01/20 00:05:08;;;;;;;;;84.00;79.00;;;;;20.65;40.05;102732.50;6368380;22;45358;-78
2024/01/20 00:07:34;;;;;;;;;91.00;86.33;;;;;20.62;40.13;102723.00;6367036;22;45253;-79
2024/01/20 00:09:59;;;;;;;;;79.33;73.67;;;;;20.59;40.18;102725.06;6368591;22;45210;-78
2024/01/20 00:12:24;;;;;;;;;81.33;76.33;;;;;20.57;40.54;102724.34;6368331;22;56208;-78
2024/01/20 00:14:50;;;;;;;;;79.33;76.67;;;;;20.54;40.51;102732.50;6368174;22;45366;-77
2024/01/20 00:17:15;;;;;;;;;83.33;78.33;;;;;20.49;40.22;102723.16;6368659;22;45323;-77
2024/01/20 00:19:41;;;;;;;;;80.67;75.00;;;;;20.48;40.37;102732.03;6368899;22;45369;-77
2024/01/20 00:22:06;;;;;;;;;78.33;68.33;;;;;20.46;40.31;102736.63;6367674;22;45991;-77
2024/01/20 00:24:31;;;;;;;;;82.00;77.33;;;;;20.45;40.28;102731.47;6368144;22;51196;-78
2024/01/20 00:26:57;;;;;;;;;80.67;73.33;;;;;20.44;40.66;102724.50;6368698;22;45252;-78
2024/01/20 00:29:22;;;;;;;;;79.00;74.33;;;;;20.41;40.52;102733.50;6367796;22;45841;-77
2024/01/20 00:31:47;;;;;;;;;75.67;70.67;;;;;20.38;40.39;102739.88;6368514;22;56385;-78
2024/01/20 00:34:13;;;;;;;;;77.33;68.00;;;;;20.37;40.32;102737.38;6339856;22;59296;-78
2024/01/20 00:36:38;;;;;;;;;78.33;70.67;;;;;20.35;40.39;102734.03;6368143;22;45555;-78
2024/01/20 00:39:04;;;;;;;;;76.33;69.33;;;;;20.33;40.48;102734.13;6368705;22;45344;-78
2024/01/20 00:41:30;;;;;;;;;73.33;65.00;;;;;20.31;40.51;102730.75;6367959;22;45965;-77
2024/01/20 00:43:55;;;;;;;;;76.67;68.33;;;;;20.29;40.49;102728.25;6368544;22;45129;-77
2024/01/20 00:46:21;;;;;;;;;74.00;63.00;;;;;20.28;40.19;102726.56;6368314;22;45197;-78
2024/01/20 00:48:46;;;;;;;;;75.67;66.67;;;;;20.27;40.06;102729.34;6369022;22;45192;-78
2024/01/20 00:51:11;;;;;;;;;71.67;61.67;;;;;20.26;40.05;102735.59;6367446;22;46233;-78
2024/01/20 00:53:37;;;;;;;;;74.00;64.00;;;;;20.25;39.81;102736.53;6367937;22;45322;-77
2024/01/20 00:56:02;;;;;;;;;74.00;65.67;;;;;20.23;39.45;102736.66;6368291;22;45265;-77
2024/01/20 00:58:27;;;;;;;;;71.33;61.67;;;;;20.22;39.58;102737.63;6368562;22;45236;-77
2024/01/20 01:00:53;;;;;;;;;75.33;63.33;;;;;20.23;39.91;102730.53;6339222;22;51233;-79
2024/01/20 01:03:18;;;;;;;;;75.00;63.33;;;;;20.19;39.77;102735.25;6368327;22;45303;-78
2024/01/20 01:05:43;;;;;;;;;72.00;63.33;;;;;20.18;39.47;102730.91;6368086;22;45306;-77
2024/01/20 01:08:09;;;;;;;;;66.00;52.00;;;;;20.17;39.67;102735.34;6366717;22;45514;-78
2024/01/20 01:10:34;;;;;;;;;75.33;67.33;;;;;20.17;39.70;102734.50;6367953;22;46178;-79
2024/01/20 01:13:00;;;;;;;;;72.00;59.33;;;;;20.16;39.34;102740.75;6368389;22;45351;-78
2024/01/20 01:15:25;;;;;;;;;74.00;66.33;;;;;20.15;39.32;102744.34;6368419;22;45256;-78
2024/01/20 01:17:50;;;;;;;;;68.00;57.33;;;;;20.14;39.24;102738.22;6367996;22;45352;-77
2024/01/20 01:20:16;;;;;;;;;74.00;65.33;;;;;20.14;39.32;102745.34;6367749;22;45882;-78
2024/01/20 01:22:41;;;;;;;;;71.00;60.33;;;;;20.13;39.46;102741.00;6367842;22;45276;-77
2024/01/20 01:25:09;;;;;;;;;68.50;56.25;;;;;20.13;39.28;102739.19;6368187;22;45166;-78
2024/01/20 01:27:34;;;;;;;;;68.00;56.75;;;;;20.09;39.17;102736.91;6367916;22;45208;-78
2024/01/20 01:30:00;;;;;;;;;70.00;57.33;;;;;20.11;39.03;102737.59;6367525;22;46789;-79
2024/01/20 01:32:25;;;;;;;;;66.75;54.50;;;;;20.10;39.12;102741.19;6368311;22;45222;-79
2024/01/20 01:34:50;;;;;;;;;67.67;52.67;;;;;20.04;39.23;102730.16;6368039;22;45201;-79
2024/01/20 01:37:16;;;;;;;;;70.00;57.67;;;;;20.05;39.15;102729.19;6367915;22;45402;-78
2024/01/20 01:39:42;;;;;;;;;69.00;55.50;;;;;20.09;38.81;102736.91;6367596;22;46241;-79
2024/01/20 01:42:08;;;;;;;;;68.00;54.25;;;;;20.06;38.86;102732.69;6368207;22;45325;-78
2024/01/20 01:44:33;;;;;;;;;65.50;52.00;;;;;20.02;39.09;102718.03;6367903;22;45301;-78
2024/01/20 01:46:59;;;;;;;;;66.50;54.50;;;;;20.07;38.74;102729.91;6367831;22;52385;-78
2024/01/20 01:49:24;;;;;;;;;68.50;54.75;;;;;20.04;38.96;102727.50;6367139;22;46213;-78
2024/01/20 01:51:51;;;;;;;;;68.25;52.75;;;;;20.06;39.01;102737.97;6367548;22;45342;-78
2024/01/20 01:54:18;;;;;;;;;68.25;55.00;;;;;20.05;38.88;102741.56;6367972;22;45326;-77
2024/01/20 01:56:46;;;;;;;;;68.25;54.00;;;;;20.05;38.91;102742.41;6367821;22;45492;-78
2024/01/20 01:59:12;;;;;;;;;68.25;53.00;;;;;19.96;38.99;102730.75;6368024;22;45299;-78
2024/01/20 02:01:38;;;;;;;;;65.75;52.25;;;;;20.04;38.87;102745.16;6367969;22;45287;-79
2024/01/20 02:04:03;;;;;;;;;63.25;51.25;;;;;20.03;38.88;102751.41;6367868;22;45301;-79
2024/01/20 02:06:29;;;;;;;;;65.75;53.00;;;;;20.03;38.80;102756.72;6368161;22;45248;-79
2024/01/20 02:08:55;;;;;;;;;64.50;52.00;;;;;19.93;38.84;102738.09;6367723;22;46054;-79
2024/01/20 02:11:21;;;;;;;;;66.00;52.50;;;;;20.01;38.54;102759.44;6367945;22;45287;-78
2024/01/20 02:13:46;;;;;;;;;66.50;52.50;;;;;20.01;38.72;102770.00;6368146;22;45260;-78
2024/01/20 02:16:12;;;;;;;;;63.75;51.75;;;;;20.01;38.54;102777.13;6368198;22;45365;-79
2024/01/20 02:18:37;;;;;;;;;67.50;54.00;;;;;20.00;38.72;102765.72;6367307;22;46023;-78
2024/01/20 02:21:05;;;;;;;;;64.00;50.00;;;;;20.00;38.57;102771.00;6367581;22;45229;-78
2024/01/20 02:23:36;;;;;;;;;62.00;50.50;;;;;19.99;38.68;102771.09;6366669;22;45218;-78
2024/01/20 02:26:02;;;;;;;;;64.25;50.75;;;;;19.98;38.73;102769.44;6367632;22;45251;-78
2024/01/20 02:28:27;;;;;;;;;61.75;50.75;;;;;19.96;38.80;102770.38;6367688;22;45386;-78
2024/01/20 02:30:53;;;;;;;;;64.75;50.75;;;;;19.98;38.64;102766.78;6367259;22;58037;-78
2024/01/20 02:33:18;;;;;;;;;62.25;50.25;;;;;19.91;38.83;102754.03;6338955;22;45251;-78
2024/01/20 02:35:43;;;;;;;;;64.00;51.25;;;;;19.96;38.73;102766.88;6367503;22;45247;-79
2024/01/20 02:38:08;;;;;;;;;63.50;50.25;;;;;19.94;38.68;102756.47;6367031;22;62574;-78
2024/01/20 02:40:34;;;;;;;;;61.75;49.75;;;;;19.94;38.53;102760.91;6367739;22;45279;-78
2024/01/20 02:42:59;;;;;;;;;57.50;46.00;;;;;19.94;38.59;102777.59;6367954;22;45317;-78
2024/01/20 02:45:24;;;;;;;;;62.75;50.00;;;;;19.95;38.44;102774.00;6368062;22;45166;-78
2024/01/20 02:47:51;;;;;;;;;59.25;47.75;;;;;19.95;38.48;102776.66;6367234;22;47271;-78
2024/01/20 02:50:16;;;;;;;;;60.25;49.25;;;;;19.96;38.42;102778.31;6367365;22;45176;-78
2024/01/20 02:52:42;;;;;;;;;60.00;48.00;;;;;19.95;38.40;102776.66;6368219;22;45408;-78
2024/01/20 02:55:07;;;;;;;;;57.25;47.25;;;;;19.95;38.20;102781.94;6367409;22;48505;-77
2024/01/20 02:57:33;;;;;;;;;49.00;41.00;;;;;19.94;38.17;102785.53;6367182;22;47006;-78
2024/01/20 02:59:58;;;;;;;;;60.25;48.00;;;;;19.89;38.01;102774.47;6367080;22;45221;-78
2024/01/20 03:02:23;;;;;;;;;58.50;46.50;;;;;19.95;38.04;102778.44;6338742;22;45287;-79
2024/01/20 03:04:49;;;;;;;;;58.25;47.75;;;;;19.95;38.29;102784.56;6367819;22;45240;-79
2024/01/20 03:07:14;;;;;;;;;52.00;44.00;;;;;19.94;38.17;102769.66;6367518;22;45987;-78
2024/01/20 03:09:40;;;;;;;;;62.50;48.00;;;;;19.94;38.13;102774.09;6367542;22;45181;-78
2024/01/20 03:12:05;;;;;;;;;47.25;39.50;;;;;19.95;38.21;102768.72;6367431;22;45222;-78
2024/01/20 03:14:31;;;;;;;;;56.00;44.75;;;;;19.94;37.96;102777.59;6367454;22;45284;-78
2024/01/20 03:16:56;;;;;;;;;55.00;46.00;;;;;19.94;37.93;102764.38;6366938;22;45311;-78
2024/01/20 03:19:21;;;;;;;;;55.00;46.00;;;;;19.90;37.91;102755.03;6368114;22;45275;-78
2024/01/20 03:21:47;;;;;;;;;53.75;44.25;;;;;19.94;38.25;102761.75;6368106;22;45196;-78
2024/01/20 03:24:17;;;;;;;;;57.75;46.50;;;;;19.95;37.98;102759.94;6367906;22;55407;-78
2024/01/20 03:26:49;;;;;;;;;58.25;45.75;;;;;19.94;37.97;102748.53;6367027;22;47294;-79
2024/01/20 03:29:15;;;;;;;;;57.50;46.50;;;;;19.95;38.11;102765.22;6366835;22;45313;-79
2024/01/20 03:31:40;;;;;;;;;54.75;45.25;;;;;19.94;38.22;102761.75;6367301;22;45240;-79
2024/01/20 03:34:06;;;;;;;;;54.00;45.00;;;;;19.93;37.71;102767.97;6367722;22;45443;-78
2024/01/20 03:36:31;;;;;;;;;55.25;44.75;;;;;19.93;37.75;102761.88;6368702;22;46220;-79
2024/01/20 03:38:56;;;;;;;;;56.00;44.50;;;;;19.93;37.73;102767.97;6368473;22;54177;-78
2024/01/20 03:41:22;;;;;;;;;55.25;45.25;;;;;19.92;37.81;102763.66;6368478;22;45521;-78
2024/01/20 03:43:47;;;;;;;;;56.00;44.50;;;;;19.91;37.97;102764.63;6368300;22;45426;-79
2024/01/20 03:46:12;;;;;;;;;52.25;42.00;;;;;19.92;37.79;102768.94;6368387;22;49866;-78
2024/01/20 03:48:39;;;;;;;;;52.00;43.00;;;;;19.91;37.95;102774.34;6368772;22;45266;-78
2024/01/20 03:51:04;;;;;;;;;56.00;43.75;;;;;19.90;37.83;102775.31;6368308;22;45333;-78
2024/01/20 03:53:30;;;;;;;;;50.25;41.75;;;;;19.89;37.86;102769.19;6367739;22;45364;-77
2024/01/20 03:55:55;;;;;;;;;56.50;44.75;;;;;19.90;37.89;102775.31;6368459;22;45968;-78
2024/01/20 03:58:20;;;;;;;;;48.00;40.50;;;;;19.90;37.93;102786.72;6368347;22;45245;-78
2024/01/20 04:00:45;;;;;;;;;52.00;43.00;;;;;19.81;37.74;102766.28;6340159;22;45343;-78
2024/01/20 04:03:11;;;;;;;;;48.75;40.75;;;;;19.90;37.66;102778.81;6368064;22;57729;-79
2024/01/20 04:05:39;;;;;;;;;44.00;37.25;;;;;19.91;37.59;102771.69;6368058;22;46774;-79
2024/01/20 04:08:05;;;;;;;;;52.25;42.50;;;;;19.89;37.36;102769.19;6368289;22;45307;-78
2024/01/20 04:10:30;;;;;;;;;50.75;42.00;;;;;19.88;37.52;102770.13;6368367;22;45225;-78
2024/01/20 04:12:55;;;;;;;;;52.25;41.25;;;;;19.89;37.49;102776.25;6367896;22;45214;-78
2024/01/20 04:15:21;;;;;;;;;52.00;42.25;;;;;19.89;37.48;102779.75;6368377;22;45262;-79
2024/01/20 04:17:46;;;;;;;;;50.25;40.75;;;;;19.89;37.40;102774.47;6368227;22;45309;-78
2024/01/20 04:20:12;;;;;;;;;51.00;40.00;;;;;19.85;37.55;102770.38;6368774;22;45221;-78
2024/01/20 04:22:37;;;;;;;;;48.75;40.00;;;;;19.88;37.42;102772.78;6368278;22;45299;-78
2024/01/20 04:25:02;;;;;;;;;32.50;28.25;;;;;19.87;37.34;102773.75;6368074;22;57256;-78
2024/01/20 04:27:28;;;;;;;;;45.25;36.50;;;;;19.87;37.41;102779.03;6368251;22;45308;-78
2024/01/20 04:29:53;;;;;;;;;53.00;40.75;;;;;19.88;37.14;102782.53;6368914;22;45253;-78
2024/01/20 04:32:18;;;;;;;;;48.75;40.00;;;;;19.87;37.33;102786.97;6368853;22;45275;-79
2024/01/20 04:34:44;;;;;;;;;48.00;39.25;;;;;19.85;37.28;102787.06;6367931;22;46005;-78
2024/01/20 04:37:09;;;;;;;;;49.00;39.25;;;;;19.85;37.45;102781.78;6340045;22;45621;-77
2024/01/20 04:39:34;;;;;;;;;49.25;41.50;;;;;19.87;37.41;102781.66;6368198;22;45713;-78
2024/01/20 04:41:59;;;;;;;;;48.50;40.25;;;;;19.86;37.47;102766.78;6367594;22;50039;-78
2024/01/20 04:44:25;;;;;;;;;48.00;40.00;;;;;19.73;37.39;102753.66;6367671;22;50345;-79
2024/01/20 04:46:50;;;;;;;;;47.75;39.25;;;;;19.83;37.46;102781.06;6367460;22;53466;-78
2024/01/20 04:49:15;;;;;;;;;45.50;37.75;;;;;19.76;37.48;102779.00;6368548;22;45302;-78
2024/01/20 04:51:41;;;;;;;;;45.75;39.50;;;;;19.83;37.29;102801.34;6368454;22;45299;-79
2024/01/20 04:54:06;;;;;;;;;47.00;39.75;;;;;19.83;37.38;102801.34;6367944;22;46024;-78
2024/01/20 04:56:31;;;;;;;;;43.75;37.75;;;;;19.82;37.24;102800.53;6367917;22;45311;-78
2024/01/20 04:58:57;;;;;;;;;47.00;39.00;;;;;19.82;37.29;102808.44;6368412;22;47369;-79
2024/01/20 05:01:22;;;;;;;;;47.50;38.00;;;;;19.82;37.20;102805.81;6367731;22;56728;-79
2024/01/20 05:03:47;;;;;;;;;42.25;35.75;;;;;19.75;37.37;102794.00;6368003;22;45297;-79
2024/01/20 05:06:13;;;;;;;;;43.75;36.25;;;;;19.81;37.31;102806.75;6368534;22;45284;-80
2024/01/20 05:08:39;;;;;;;;;46.00;37.00;;;;;19.73;37.26;102788.00;6368513;22;45230;-79
2024/01/20 05:11:04;;;;;;;;;43.50;36.25;;;;;19.80;37.25;102810.34;6339492;22;45425;-78
2024/01/20 05:13:30;;;;;;;;;46.25;37.50;;;;;19.80;37.19;102806.88;6367796;22;47010;-78
2024/01/20 05:15:56;;;;;;;;;46.00;37.50;;;;;19.78;37.13;102808.78;6367839;22;45166;-79
2024/01/20 05:18:21;;;;;;;;;47.00;37.50;;;;;19.80;37.36;102820.09;6368314;22;45327;-79
2024/01/20 05:20:47;;;;;;;;;47.00;38.00;;;;;19.80;37.25;102825.38;6368063;22;45097;-78
2024/01/20 05:23:12;;;;;;;;;41.75;35.00;;;;;19.79;37.32;102826.31;6368096;22;45334;-78
2024/01/20 05:25:38;;;;;;;;;39.75;34.25;;;;;19.79;37.13;102827.16;6366498;22;45258;-79
2024/01/20 05:28:04;;;;;;;;;46.25;36.00;;;;;19.75;37.07;102817.78;6367823;22;45320;-78
2024/01/20 05:30:29;;;;;;;;;45.25;36.00;;;;;19.79;37.24;102821.88;6368330;22;45303;-78
2024/01/20 05:32:54;;;;;;;;;44.50;36.25;;;;;19.80;36.91;102828.00;6367851;22;45968;-78
2024/01/20 05:35:20;;;;;;;;;43.75;33.75;;;;;19.79;37.05;102816.59;6368054;22;45342;-78
2024/01/20 05:37:45;;;;;;;;;41.00;34.25;;;;;19.79;37.01;102816.59;6367981;22;45268;-78
2024/01/20 05:40:11;;;;;;;;;40.25;33.00;;;;;19.79;36.89;102818.41;6367454;22;45413;-78
2024/01/20 05:42:36;;;;;;;;;38.75;33.00;;;;;19.79;36.63;102821.03;6367566;22;46012;-79
2024/01/20 05:45:02;;;;;;;;;42.00;35.00;;;;;19.79;36.96;102819.25;6367615;22;45283;-78
2024/01/20 05:47:27;;;;;;;;;41.00;32.75;;;;;19.79;36.77;102815.75;6367926;22;45222;-79
2024/01/20 05:49:52;;;;;;;;;38.75;34.75;;;;;19.65;36.73;102788.59;6367801;22;45391;-78
2024/01/20 05:52:18;;;;;;;;;41.50;35.25;;;;;19.80;36.85;102814.81;6368078;22;45272;-77
2024/01/20 05:54:43;;;;;;;;;42.25;34.25;;;;;19.72;36.80;102800.34;6367108;22;53967;-78
2024/01/20 05:57:08;;;;;;;;;38.25;31.50;;;;;19.79;36.56;102815.75;6367127;22;61105;-78
2024/01/20 05:59:34;;;;;;;;;41.00;34.00;;;;;19.78;36.83;102820.19;6367938;22;45398;-78
2024/01/20 06:02:00;;;;;;;;;42.25;34.75;;;;;19.78;36.89;102819.34;6367780;22;45753;-78
2024/01/20 06:04:25;;;;;;;;;42.50;34.00;;;;;19.77;36.82;102825.59;6367978;22;45224;-79
2024/01/20 06:06:51;;;;;;;;;37.50;32.25;;;;;19.72;37.02;102821.50;6368294;22;45232;-78
2024/01/20 06:09:16;;;;;;;;;30.00;28.25;;;;;19.73;36.79;102822.34;6368368;22;45328;-78
2024/01/20 06:11:42;;;;;;;;;34.25;31.25;;;;;19.77;36.86;102829.09;6368461;22;47047;-77
2024/01/20 06:14:07;;;;;;;;;34.00;31.25;;;;;19.77;36.85;102829.09;6368311;22;45347;-78
2024/01/20 06:16:35;;;;;;;;;40.50;34.00;;;;;19.76;36.93;102824.75;6368327;22;45295;-78
2024/01/20 06:19:01;;;;;;;;;34.25;30.00;;;;;19.75;36.68;102827.53;6368169;22;45427;-78
2024/01/20 06:21:27;;;;;;;;;40.75;32.50;;;;;19.75;36.78;102835.44;6367678;22;46212;-78
2024/01/20 06:23:52;;;;;;;;;35.00;31.00;;;;;19.66;36.63;102821.13;6367139;22;45357;-78
2024/01/20 06:26:17;;;;;;;;;33.75;29.50;;;;;19.66;36.68;102821.13;6368321;22;45264;-78
2024/01/20 06:28:43;;;;;;;;;35.00;30.50;;;;;19.71;36.97;102827.75;6368169;22;45265;-78
2024/01/20 06:31:09;;;;;;;;;31.25;30.25;;;;;19.72;36.76;102826.78;6367907;22;45295;-78
2024/01/20 06:33:34;;;;;;;;;34.75;29.50;;;;;19.69;36.77;102819.09;6367952;22;45287;-79
2024/01/20 06:36:00;;;;;;;;;36.50;32.00;;;;;19.70;36.61;102826.06;6368007;22;45298;-78
2024/01/20 06:38:26;;;;;;;;;39.75;32.00;;;;;19.67;36.79;102817.53;6367868;22;45323;-78
2024/01/20 06:40:51;;;;;;;;;30.00;28.00;;;;;19.70;36.69;102822.56;6367189;22;46950;-77
2024/01/20 06:43:17;;;;;;;;;30.75;28.00;;;;;19.66;36.57;102810.56;6367378;22;45252;-78
2024/01/20 06:45:42;;;;;;;;;36.00;31.75;;;;;19.71;36.49;102819.81;6366665;22;61044;-79
2024/01/20 06:48:09;;;;;;;;;32.50;29.75;;;;;19.71;36.77;102813.69;6367995;22;45264;-78
2024/01/20 06:50:37;;;;;;;;;36.00;29.00;;;;;19.71;36.64;102814.53;6367237;22;46779;-78
2024/01/20 06:53:03;;;;;;;;;35.50;30.00;;;;;19.70;36.63;102815.47;6367167;22;45177;-77
2024/01/20 06:55:30;;;;;;;;;32.25;28.50;;;;;19.71;36.76;102808.41;6367434;22;45606;-77
2024/01/20 06:57:55;;;;;;;;;27.50;25.25;;;;;19.70;36.69;102812.00;6367448;22;45360;-79
2024/01/20 07:00:21;;;;;;;;;27.00;26.50;;;;;19.71;36.53;102813.69;6366942;22;57936;-78
2024/01/20 07:02:46;;;;;;;;;31.50;28.00;;;;;19.68;36.42;102803.34;6367818;22;45208;-78
2024/01/20 07:05:11;;;;;;;;;32.00;28.75;;;;;19.70;36.39;102806.72;6339232;22;45310;-78
2024/01/20 07:07:38;;;;;;;;;29.50;26.50;;;;;19.68;36.51;102811.28;6367472;22;45556;-78
2024/01/20 07:10:05;;;;;;;;;31.50;28.00;;;;;19.69;36.35;102821.75;6367871;22;46944;-78
2024/01/20 07:12:31;;;;;;;;;34.25;28.50;;;;;19.65;36.65;102809.72;6368251;22;45321;-78
2024/01/20 07:14:56;;;;;;;;;28.25;27.75;;;;;19.70;36.52;102830.47;6368441;22;45314;-78
2024/01/20 07:17:21;;;;;;;;;33.25;27.50;;;;;19.63;36.49;102822.19;6368544;22;45452;-78
2024/01/20 07:19:47;;;;;;;;;31.00;27.75;;;;;19.70;36.30;102838.41;6368754;22;46033;-78
2024/01/20 07:22:12;;;;;;;;;27.00;24.25;;;;;19.69;36.22;102839.38;6367887;22;45276;-77
2024/01/20 07:24:37;;;;;;;;;25.00;24.75;;;;;19.70;36.34;102838.41;6368498;22;45266;-79
2024/01/20 07:27:03;;;;;;;;;31.25;28.50;;;;;19.69;36.12;102832.31;6368710;22;45506;-78
2024/01/20 07:29:28;;;;;;;;;28.75;28.75;;;;;19.65;36.31;102830.84;6368634;22;45269;-78
2024/01/20 07:31:53;;;;;;;;;31.25;29.75;;;;;19.67;36.47;102830.75;6367620;22;59649;-78
2024/01/20 07:34:20;;;;;;;;;29.50;27.25;;;;;19.69;36.45;102839.38;6368725;22;45296;-78
2024/01/20 07:36:45;;;;;;;;;27.75;25.50;;;;;19.67;36.51;102839.47;6368312;22;45198;-78
2024/01/20 07:39:11;;;;;;;;;27.75;24.00;;;;;19.66;36.21;102829.88;6368511;22;45930;-78
2024/01/20 07:41:36;;;;;;;;;25.50;24.25;;;;;19.67;36.33;102831.56;6368316;22;45169;-78
2024/01/20 07:44:01;;;;;;;;;27.75;26.75;;;;;19.67;36.31;102836.03;6368375;22;45167;-78
2024/01/20 07:46:27;;;;;;;;;17.25;14.75;;;;;19.66;36.33;102831.69;6368918;22;45158;-78
2024/01/20 07:48:52;;;;;;;;;22.50;21.50;;;;;19.67;36.29;102836.03;6368047;22;55406;-79
2024/01/20 07:51:17;;;;;;;;;32.75;28.50;;;;;19.66;36.37;102832.53;6367368;22;61122;-78
2024/01/20 07:53:43;;;;;;;;;27.00;24.25;;;;;19.58;36.44;102811.97;6368534;22;45411;-78
2024/01/20 07:56:10;;;;;;;;;24.00;24.00;;;;;19.65;36.36;102825.56;6369067;22;45232;-77
2024/01/20 07:58:36;;;;;;;;;24.75;23.00;;;;;19.63;36.19;102830.13;6368207;22;46972;-78
2024/01/20 08:01:01;;;;;;;;;25.00;23.75;;;;;19.64;36.37;102831.81;6368811;22;45267;-79
2024/01/20 08:03:27;;;;;;;;;27.00;24.75;;;;;19.64;36.18;102812.47;6368299;22;45250;-78
2024/01/20 08:05:52;;;;;;;;;26.50;23.00;;;;;19.65;36.31;102827.38;6368244;22;47691;-78
2024/01/20 08:08:17;;;;;;;;;23.50;23.25;;;;;19.65;35.88;102819.44;6368193;22;46022;-79
2024/01/20 08:10:42;;;;;;;;;24.25;24.00;;;;;19.64;36.29;102805.41;6368310;22;49646;-78
2024/01/20 08:13:08;;;;;;;;;26.00;24.00;;;;;19.64;36.09;102809.84;6368496;22;45252;-78
2024/01/20 08:15:33;;;;;;;;;26.75;24.25;;;;;19.59;36.21;102812.84;6368231;22;45211;-78
2024/01/20 08:17:58;;;;;;;;;24.25;21.75;;;;;19.59;35.95;102797.00;6368134;22;49896;-78
2024/01/20 08:20:24;;;;;;;;;25.50;24.50;;;;;19.62;36.23;102818.69;6368213;22;45215;-77
2024/01/20 08:22:49;;;;;;;;;25.00;22.50;;;;;19.60;36.13;102809.22;6368897;22;45279;-77
2024/01/20 08:25:15;;;;;;;;;21.75;21.00;;;;;19.60;36.17;102815.34;6368474;22;45303;-78
2024/01/20 08:27:40;;;;;;;;;28.00;22.75;;;;;19.60;36.03;102820.63;6368559;22;45847;-78
2024/01/20 08:30:06;;;;;;;;;24.25;24.25;;;;;19.61;36.26;102824.13;6368265;22;45397;-78
2024/01/20 08:32:32;;;;;;;;;24.00;22.75;;;;;19.62;36.34;102829.25;6368745;22;45276;-78
2024/01/20 08:34:57;;;;;;;;;21.50;18.25;;;;;19.61;36.20;102829.41;6367955;22;45522;-78
2024/01/20 08:37:22;;;;;;;;;22.00;22.00;;;;;19.62;36.42;102831.09;6368294;22;46226;-78
2024/01/20 08:39:48;;;;;;;;;21.75;20.00;;;;;19.59;36.26;102826.88;6367734;22;60431;-78
2024/01/20 08:42:13;;;;;;;;;21.50;21.50;;;;;19.62;36.29;102839.00;6340051;22;45314;-78
2024/01/20 08:44:39;;;;;;;;;20.25;20.00;;;;;19.62;35.95;102836.38;6339974;22;45433;-78
2024/01/20 08:47:04;;;;;;;;;22.75;20.50;;;;;19.60;36.20;102840.91;6339933;22;47243;-78
2024/01/20 08:49:29;;;;;;;;;22.25;19.75;;;;;19.62;36.27;102833.72;6368029;22;45346;-78
2024/01/20 08:51:55;;;;;;;;;21.25;21.25;;;;;19.63;36.16;102832.75;6368690;22;45281;-77
2024/01/20 08:54:20;;;;;;;;;23.25;21.00;;;;;19.63;36.06;102827.47;6368127;22;45347;-77
2024/01/20 08:56:47;;;;;;;;;25.75;22.75;;;;;19.64;35.96;102839.72;6368459;22;45314;-77
2024/01/20 08:59:13;;;;;;;;;22.50;18.75;;;;;19.64;36.02;102839.72;6368851;22;45285;-78
2024/01/20 09:01:38;;;;;;;;;20.75;18.00;;;;;19.65;36.05;102835.31;6368958;22;45305;-78
2024/01/20 09:04:03;;;;;;;;;21.25;18.50;;;;;19.64;35.89;102844.16;6368214;22;57497;-78
2024/01/20 09:06:29;;;;;;;;;19.25;18.25;;;;;19.65;36.08;102845.88;6368173;22;54826;-78
2024/01/20 09:08:54;;;;;;;;;26.25;21.50;;;;;19.54;35.75;102826.38;6368256;22;45186;-78
2024/01/20 09:11:19;;;;;;;;;25.25;21.00;;;;;19.60;35.84;102838.25;6367854;22;49578;-78
2024/01/20 09:13:45;;;;;;;;;23.25;21.00;;;;;19.61;35.76;102846.09;6339782;22;45175;-78
2024/01/20 09:16:10;;;;;;;;;24.00;22.00;;;;;19.61;35.82;102835.53;6367818;22;46194;-78
2024/01/20 09:18:35;;;;;;;;;23.50;19.50;;;;;19.61;35.62;102835.53;6367187;22;62757;-77
2024/01/20 09:21:00;;;;;;;;;22.00;20.25;;;;;19.54;36.00;102822.91;6367896;22;52886;-77
2024/01/20 09:23:26;;;;;;;;;20.50;19.25;;;;;19.61;35.93;102829.41;6367666;22;51290;-77
2024/01/20 09:25:51;;;;;;;;;14.75;14.00;;;;;19.56;35.70;102821.81;6367994;22;50385;-78
2024/01/20 09:28:16;;;;;;;;;19.25;19.25;;;;;19.61;35.88;102837.31;6367904;22;45248;-78
2024/01/20 09:30:42;;;;;;;;;23.75;20.25;;;;;19.59;35.93;102824.25;6368338;22;45211;-78
2024/01/20 09:33:07;;;;;;;;;19.75;17.00;;;;;19.59;36.04;102813.69;6366685;22;49671;-79
2024/01/20 09:35:32;;;;;;;;;21.00;18.00;;;;;19.59;35.72;102824.25;6367712;22;46934;-78
2024/01/20 09:37:58;;;;;;;;;20.00;19.75;;;;;19.60;35.84;102822.41;6368362;22;45257;-78
2024/01/20 09:40:23;;;;;;;;;12.25;7.25;;;;;19.47;35.87;102814.56;6367844;22;45226;-78
2024/01/20 09:42:50;;;;;;;;;17.00;14.50;;;;;19.53;35.91;102829.13;6368049;22;45297;-78
2024/01/20 09:45:15;;;;;;;;;21.00;18.25;;;;;19.58;35.72;102833.09;6368087;22;46714;-78
2024/01/20 09:47:41;;;;;;;;;20.50;19.75;;;;;19.58;35.65;102824.34;6367651;22;45309;-82
2024/01/20 09:50:06;;;;;;;;;19.00;16.25;;;;;19.57;35.80;102831.41;6368228;22;45406;-79
2024/01/20 09:52:32;;;;;;;;;20.50;20.50;;;;;19.58;35.75;102837.53;6368319;22;45383;-80
2024/01/20 09:55:17;;;;;;;;;16.25;16.25;;;;;19.54;35.95;102829.03;6368086;22;45996;-80
2024/01/20 09:57:45;;;;;;;;;17.50;15.50;;;;;19.53;35.82;102829.97;6340093;22;45169;-80
2024/01/20 10:00:16;;;;;;;;;19.75;19.75;;;;;19.51;35.70;102829.25;6368675;22;45295;-80
2024/01/20 10:02:43;;;;;;;;;20.50;16.00;;;;;19.56;35.80;102837.66;6367291;22;45446;-80
2024/01/20 10:05:10;;;;;;;;;11.50;10.00;;;;;19.51;35.52;102834.53;6367426;22;46574;-79
2024/01/20 10:07:35;;;;;;;;;18.50;17.50;;;;;19.51;35.86;102834.53;6368267;22;45193;-81
2024/01/20 10:10:02;;;;;;;;;19.75;16.50;;;;;19.49;35.82;102831.97;6368176;22;45238;-84
2024/01/20 10:12:27;;;;;;;;;18.25;16.25;;;;;19.57;36.03;102835.88;6367914;22;45290;-81
2024/01/20 10:14:53;;;;;;;;;17.00;15.75;;;;;19.56;35.73;102842.94;6367954;22;46355;-81
2024/01/20 10:17:19;;;;;;;;;22.00;19.00;;;;;19.56;35.79;102853.50;6367587;22;45307;-75
2024/01/20 10:19:45;;;;;;;;;15.75;14.00;;;;;19.56;35.94;102850.03;6368381;22;45304;-81
2024/01/20 10:22:11;;;;;;;;;20.25;16.50;;;;;19.56;35.74;102848.22;6369631;22;45522;-80
2024/01/20 10:24:50;;;;;;;;;15.75;13.50;;;;;19.56;35.75;102853.50;6368955;22;46055;-80
2024/01/20 10:27:20;;;;;;;;;18.75;17.25;;;;;19.48;35.76;102845.31;6341159;22;45200;-83
2024/01/20 10:29:47;;;;;;;;;18.75;17.75;;;;;19.58;35.70;102861.31;6368667;22;45258;-82
2024/01/20 10:32:13;;;;;;;;;16.50;14.50;;;;;19.57;35.58;102851.72;6340515;22;45587;-77
2024/01/20 10:34:39;;;;;;;;;19.00;15.75;;;;;19.29;35.85;102815.00;6368258;22;46206;-79
2024/01/20 10:37:10;;;;;;;;;17.00;16.00;;;;;19.59;35.96;102850.66;6368773;22;45264;-81
2024/01/20 10:39:41;;;;;;;;;14.25;14.25;;;;;19.59;35.67;102853.28;6368113;22;45299;-76
2024/01/20 10:42:10;;;;;;;;;15.75;14.00;;;;;19.61;35.79;102847.88;6367382;22;45477;-75
2024/01/20 10:44:41;;;;;;;;;17.00;17.00;;;;;19.62;36.15;102854.84;6365549;22;46286;-76
2024/01/20 10:47:15;;;;;;;;;19.75;15.00;;;;;19.61;36.20;102853.16;6367477;22;45233;-75
2024/01/20 10:49:45;;;;;;;;;16.75;14.75;;;;;19.65;36.32;102854.59;6367775;22;45283;-77
2024/01/20 10:52:11;;;;;;;;;16.00;15.00;;;;;19.67;36.92;102852.69;6367514;22;45451;-75
2024/01/20 10:54:37;;;;;;;;;13.50;13.25;;;;;19.68;37.42;102854.38;6367105;22;46856;-75
2024/01/20 10:57:03;;;;;;;;;19.50;18.75;;;;;19.68;34.80;102842.97;6367748;22;45154;-76
2024/01/20 10:59:36;;;;;;;;;21.00;20.00;;;;;19.67;34.41;102852.69;6366916;22;45339;-75
2024/01/20 11:02:04;;;;;;;;;19.50;16.75;;;;;19.64;34.70;102847.66;6367220;22;45470;-75